Elks Point, Nevada
Current Conditions -  °F | °C
As of 12:53 AM on Monday 22 Dec 2014 (Local Time) from KTVL Reporting Station
Clear Clear  
Wind Chill: 27°   Ceiling: Unl
Heat Index: 32°   Visibility: 10mi
Dew Point: 27°   Wind: 5mph
Humidity: 82%   Direction: 200°SSW
Pressure: 30.34"   Gusts: NA
Location:  39.0164°N, 119.925°W
Report Text: KTVL 220853Z AUTO 20004KT 10SM CLR 00/M03 A3034 RMK AO2 SLP257 T00001028 58004
Loading
Personal Weather Stations






























Interactive Weather Map New forecast layout! Learn more

10-Day Weather Forecast

Advertisements
Track Severe Weather on mobile